Redmond, OR

7:43 PM PDT on April 21, 2015 (GMT -0700)
Roberts Field Airport | | Change Station
CLOSE
Current Station
Airport
Location: Redmond,
Elevation: 3077 ft
Nearby Weather Stations

Elev 3077 ft 44.25 °N, 121.15 °W | Updated 47 minutes ago

Partly Cloudy
Partly Cloudy
54 °F
Feels Like 54 °F
N
22
Wind Variable Wind from NW
Gusts 30 mph

Today
High -- | Low -- °F
--% Chance of Precip.
Yesterday
High -- | Low -- °F
Precip. -- in
6:11 AM 7:56 PM
Waxing Crescent, 14% visible
Pressure 29.89 in
Visibility 10.0 miles
Clouds Clear
Dew Point 40 °F
Humidity 59%
Rainfall 0.04 in
Snow Depth Not available.
UV 0 out of 12
Pollen 10.10 out of 12
Air Quality Not available.
Flu Activity Regional
METAR KRDM 220156Z 31019G26KT 10SM CLR 12/04 A2988 RMK AO2 PK WND 29027/0131 RAE19 SLP120 P0001 T01220044

More Conditions Fewer Conditions

Pressure 29.89 in
Visibility 10.0 miles
Clouds Clear
Dew Point 40 °F
Humidity 59%
Rainfall 0.04 in
Snow Depth Not available.
UV 0 out of 12
Pollen 10.10 out of 12
Air Quality Not available.
Flu Activity Regional
METAR KRDM 220156Z 31019G26KT 10SM CLR 12/04 A2988 RMK AO2 PK WND 29027/0131 RAE19 SLP120 P0001 T01220044

More Conditions Fewer Conditions

10-Day Weather Forecast

Almanac

Astronomy

Apr. 21, 2015 Rise Set
Actual Time
Civil Twilight
Nautical Twilight
Astronomical Twilight
Moon
Length of Visible Light
Length of Day
Tomorrow will be .
, % of the Moon is Illuminated

Today's Extremes

State Highs State Lows

Community

WunderPhotos

Upload Photos

1,815,642 photos uploaded!

WunderBlogs® & News

Nearby

Air Quality

  Air Quality AQ Index Pollutant
Not available.

Snow Depth

Station Depth Elevation

Earthquake Activity

City Distance Mag. Time & Date
Minimum magnitude displayed is 2.5.

Coastal Water Temperatures

Place Temperature

Stations

Nearby Weather Stations

Station Location Temp. Windchill Dew Point Humidity Wind Precip. Elev Updated Type